sensor_id;sensor_type;location;lat;lon;timestamp;pressure;altitude;pressure_sealevel;temperature;humidity
80103;BME280;69865;47.648;19.030;2023-11-21T00:00:18;100021.47;;;8.17;82.64
80103;BME280;69865;47.648;19.030;2023-11-21T00:00:50;100028.28;;;8.20;82.51
80103;BME280;69865;47.648;19.030;2023-11-21T00:01:22;100020.53;;;8.18;82.85
80103;BME280;69865;47.648;19.030;2023-11-21T00:01:54;100024.09;;;8.17;83.40
80103;BME280;69865;47.648;19.030;2023-11-21T00:02:27;100023.50;;;8.14;83.15
80103;BME280;69865;47.648;19.030;2023-11-21T00:02:59;100019.38;;;8.11;83.11
80103;BME280;69865;47.648;19.030;2023-11-21T00:03:31;100022.81;;;8.12;83.48
80103;BME280;69865;47.648;19.030;2023-11-21T00:04:04;100023.63;;;8.12;82.95
80103;BME280;69865;47.648;19.030;2023-11-21T00:04:36;100026.25;;;8.12;83.34
80103;BME280;69865;47.648;19.030;2023-11-21T00:05:08;100032.84;;;8.07;84.03
80103;BME280;69865;47.648;19.030;2023-11-21T00:05:41;100025.22;;;8.03;83.77
80103;BME280;69865;47.648;19.030;2023-11-21T00:06:13;100029.66;;;8.03;84.05
80103;BME280;69865;47.648;19.030;2023-11-21T00:06:46;100025.34;;;8.02;84.00
80103;BME280;69865;47.648;19.030;2023-11-21T00:07:18;100029.91;;;8.00;84.31
80103;BME280;69865;47.648;19.030;2023-11-21T00:07:51;100034.41;;;7.98;83.42
80103;BME280;69865;47.648;19.030;2023-11-21T00:08:23;100032.63;;;7.98;83.48
80103;BME280;69865;47.648;19.030;2023-11-21T00:08:55;100032.53;;;8.00;83.31
80103;BME280;69865;47.648;19.030;2023-11-21T00:09:27;100033.22;;;8.02;83.38
80103;BME280;69865;47.648;19.030;2023-11-21T00:09:59;100035.00;;;8.01;83.21
80103;BME280;69865;47.648;19.030;2023-11-21T00:10:31;100024.66;;;8.00;84.11
80103;BME280;69865;47.648;19.030;2023-11-21T00:11:03;100036.09;;;7.99;83.57
80103;BME280;69865;47.648;19.030;2023-11-21T00:11:35;100032.06;;;7.95;83.82
80103;BME280;69865;47.648;19.030;2023-11-21T00:12:08;100033.09;;;7.92;83.96
80103;BME280;69865;47.648;19.030;2023-11-21T00:12:40;100037.56;;;7.92;84.48
80103;BME280;69865;47.648;19.030;2023-11-21T00:13:13;100036.72;;;7.91;84.59
80103;BME280;69865;47.648;19.030;2023-11-21T00:13:45;100035.28;;;7.87;84.75
80103;BME280;69865;47.648;19.030;2023-11-21T00:14:21;100033.63;;;7.86;84.24
80103;BME280;69865;47.648;19.030;2023-11-21T00:14:53;100036.50;;;7.83;84.32
80103;BME280;69865;47.648;19.030;2023-11-21T00:15:29;100032.09;;;7.84;85.03
80103;BME280;69865;47.648;19.030;2023-11-21T00:16:01;100025.06;;;7.73;85.18
80103;BME280;69865;47.648;19.030;2023-11-21T00:16:34;100023.84;;;7.77;84.89
80103;BME280;69865;47.648;19.030;2023-11-21T00:17:06;100025.91;;;7.74;85.18
80103;BME280;69865;47.648;19.030;2023-11-21T00:17:39;100024.13;;;7.74;84.60
80103;BME280;69865;47.648;19.030;2023-11-21T00:18:11;100036.94;;;7.88;84.53
80103;BME280;69865;47.648;19.030;2023-11-21T00:18:43;100033.38;;;7.89;83.78
80103;BME280;69865;47.648;19.030;2023-11-21T00:19:15;100034.94;;;7.92;83.82
80103;BME280;69865;47.648;19.030;2023-11-21T00:19:47;100036.56;;;7.93;84.28
80103;BME280;69865;47.648;19.030;2023-11-21T00:20:20;100027.06;;;7.92;83.61
80103;BME280;69865;47.648;19.030;2023-11-21T00:20:52;100032.88;;;7.95;83.74
80103;BME280;69865;47.648;19.030;2023-11-21T00:21:25;100023.94;;;7.98;83.66
80103;BME280;69865;47.648;19.030;2023-11-21T00:21:58;100033.78;;;8.06;83.69
80103;BME280;69865;47.648;19.030;2023-11-21T00:22:30;100030.22;;;8.07;83.52
80103;BME280;69865;47.648;19.030;2023-11-21T00:23:02;100025.81;;;8.07;83.77
80103;BME280;69865;47.648;19.030;2023-11-21T00:23:35;100021.19;;;7.99;83.69
80103;BME280;69865;47.648;19.030;2023-11-21T00:24:08;100033.09;;;8.03;83.40
80103;BME280;69865;47.648;19.030;2023-11-21T00:24:42;100031.44;;;8.02;83.97
80103;BME280;69865;47.648;19.030;2023-11-21T00:25:14;100036.69;;;8.02;83.54
80103;BME280;69865;47.648;19.030;2023-11-21T00:25:46;100032.53;;;8.00;83.86
80103;BME280;69865;47.648;19.030;2023-11-21T00:26:19;100037.75;;;8.00;84.13
80103;BME280;69865;47.648;19.030;2023-11-21T00:26:51;100040.97;;;8.03;83.35
80103;BME280;69865;47.648;19.030;2023-11-21T00:27:23;100035.25;;;7.98;84.22
80103;BME280;69865;47.648;19.030;2023-11-21T00:27:55;100020.16;;;7.91;83.59
80103;BME280;69865;47.648;19.030;2023-11-21T00:28:27;100028.88;;;8.12;82.85
80103;BME280;69865;47.648;19.030;2023-11-21T00:29:00;100039.72;;;8.19;82.69
80103;BME280;69865;47.648;19.030;2023-11-21T00:29:32;100040.19;;;8.24;83.04
80103;BME280;69865;47.648;19.030;2023-11-21T00:30:05;100020.31;;;8.10;82.39
80103;BME280;69865;47.648;19.030;2023-11-21T00:30:38;100040.56;;;8.19;83.42
80103;BME280;69865;47.648;19.030;2023-11-21T00:31:10;100031.09;;;8.28;81.97
80103;BME280;69865;47.648;19.030;2023-11-21T00:31:42;100033.50;;;8.31;82.47
80103;BME280;69865;47.648;19.030;2023-11-21T00:32:14;100036.97;;;8.31;82.69
80103;BME280;69865;47.648;19.030;2023-11-21T00:32:47;100037.47;;;8.46;82.05
80103;BME280;69865;47.648;19.030;2023-11-21T00:33:19;100028.66;;;8.47;81.56
80103;BME280;69865;47.648;19.030;2023-11-21T00:33:51;100020.72;;;8.58;79.75
80103;BME280;69865;47.648;19.030;2023-11-21T00:34:24;100037.88;;;8.62;80.79
80103;BME280;69865;47.648;19.030;2023-11-21T00:34:56;100033.97;;;8.57;80.30
80103;BME280;69865;47.648;19.030;2023-11-21T00:35:28;100043.78;;;8.55;80.48
80103;BME280;69865;47.648;19.030;2023-11-21T00:36:01;100032.91;;;8.59;80.17
80103;BME280;69865;47.648;19.030;2023-11-21T00:36:36;100031.34;;;8.57;80.06
80103;BME280;69865;47.648;19.030;2023-11-21T00:37:09;100028.22;;;8.63;80.18
80103;BME280;69865;47.648;19.030;2023-11-21T00:37:41;100038.34;;;8.67;79.95
80103;BME280;69865;47.648;19.030;2023-11-21T00:38:14;100035.72;;;8.67;79.95
80103;BME280;69865;47.648;19.030;2023-11-21T00:38:46;100037.75;;;8.64;80.37
80103;BME280;69865;47.648;19.030;2023-11-21T00:39:18;100038.84;;;8.61;80.18
80103;BME280;69865;47.648;19.030;2023-11-21T00:39:50;100037.88;;;8.62;80.14
80103;BME280;69865;47.648;19.030;2023-11-21T00:40:23;100036.59;;;8.57;79.93
80103;BME280;69865;47.648;19.030;2023-11-21T00:40:55;100032.31;;;8.56;80.10
80103;BME280;69865;47.648;19.030;2023-11-21T00:41:27;100041.47;;;8.61;80.64
80103;BME280;69865;47.648;19.030;2023-11-21T00:42:00;100036.47;;;8.58;79.61
80103;BME280;69865;47.648;19.030;2023-11-21T00:42:32;100038.34;;;8.67;79.84
80103;BME280;69865;47.648;19.030;2023-11-21T00:43:05;100047.09;;;8.77;78.70
80103;BME280;69865;47.648;19.030;2023-11-21T00:43:37;100034.41;;;8.62;79.79
80103;BME280;69865;47.648;19.030;2023-11-21T00:44:10;100032.81;;;8.49;80.08
80103;BME280;69865;47.648;19.030;2023-11-21T00:44:43;100047.16;;;8.45;80.46
80103;BME280;69865;47.648;19.030;2023-11-21T00:45:15;100036.44;;;8.37;81.26
80103;BME280;69865;47.648;19.030;2023-11-21T00:45:48;100050.19;;;8.30;81.33
80103;BME280;69865;47.648;19.030;2023-11-21T00:46:20;100039.47;;;8.22;82.22
80103;BME280;69865;47.648;19.030;2023-11-21T00:46:52;100042.34;;;8.19;81.77
80103;BME280;69865;47.648;19.030;2023-11-21T00:47:25;100045.72;;;8.10;82.84
80103;BME280;69865;47.648;19.030;2023-11-21T00:47:58;100042.97;;;8.11;82.27
80103;BME280;69865;47.648;19.030;2023-11-21T00:48:30;100045.00;;;8.08;82.65
80103;BME280;69865;47.648;19.030;2023-11-21T00:49:03;100038.56;;;8.00;82.99
80103;BME280;69865;47.648;19.030;2023-11-21T00:49:35;100037.88;;;7.98;83.32
80103;BME280;69865;47.648;19.030;2023-11-21T00:50:08;100039.78;;;7.96;83.13
80103;BME280;69865;47.648;19.030;2023-11-21T00:50:41;100029.53;;;7.93;83.33
80103;BME280;69865;47.648;19.030;2023-11-21T00:51:13;100032.31;;;7.92;84.25
80103;BME280;69865;47.648;19.030;2023-11-21T00:51:45;100027.66;;;7.84;83.90
80103;BME280;69865;47.648;19.030;2023-11-21T00:52:19;100030.28;;;7.84;84.21
80103;BME280;69865;47.648;19.030;2023-11-21T00:52:51;100020.28;;;7.78;84.62
80103;BME280;69865;47.648;19.030;2023-11-21T00:53:23;100024.06;;;7.85;84.64
80103;BME280;69865;47.648;19.030;2023-11-21T00:53:56;100024.81;;;7.87;83.84
80103;BME280;69865;47.648;19.030;2023-11-21T00:54:28;100013.00;;;7.82;83.72
80103;BME280;69865;47.648;19.030;2023-11-21T00:55:01;100034.78;;;7.93;83.41
80103;BME280;69865;47.648;19.030;2023-11-21T00:55:34;100014.66;;;7.94;83.85
80103;BME280;69865;47.648;19.030;2023-11-21T00:56:07;100024.56;;;7.90;84.03
80103;BME280;69865;47.648;19.030;2023-11-21T00:56:39;100024.81;;;7.87;84.10
80103;BME280;69865;47.648;19.030;2023-11-21T00:57:11;100022.28;;;7.86;83.74
80103;BME280;69865;47.648;19.030;2023-11-21T00:57:44;100018.97;;;7.84;84.06
80103;BME280;69865;47.648;19.030;2023-11-21T00:58:16;100032.09;;;7.84;83.94
80103;BME280;69865;47.648;19.030;2023-11-21T00:58:49;100023.25;;;7.85;84.68
80103;BME280;69865;47.648;19.030;2023-11-21T00:59:22;100032.09;;;7.84;84.76
80103;BME280;69865;47.648;19.030;2023-11-21T00:59:55;100025.53;;;7.78;84.20
80103;BME280;69865;47.648;19.030;2023-11-21T01:00:27;100031.13;;;7.74;84.30
80103;BME280;69865;47.648;19.030;2023-11-21T01:00:59;100033.19;;;7.70;84.55
80103;BME280;69865;47.648;19.030;2023-11-21T01:01:32;100025.56;;;7.67;84.71
80103;BME280;69865;47.648;19.030;2023-11-21T01:02:04;100034.97;;;7.70;84.71
80103;BME280;69865;47.648;19.030;2023-11-21T01:02:37;100032.22;;;7.71;84.68
80103;BME280;69865;47.648;19.030;2023-11-21T01:03:09;100031.63;;;7.68;85.24
80103;BME280;69865;47.648;19.030;2023-11-21T01:03:42;100034.47;;;7.65;85.66
80103;BME280;69865;47.648;19.030;2023-11-21T01:04:14;100035.31;;;7.65;84.84
80103;BME280;69865;47.648;19.030;2023-11-21T01:04:47;100028.53;;;7.63;85.18
80103;BME280;69865;47.648;19.030;2023-11-21T01:05:20;100028.91;;;7.58;85.30
80103;BME280;69865;47.648;19.030;2023-11-21T01:05:52;100029.84;;;7.57;85.48
80103;BME280;69865;47.648;19.030;2023-11-21T01:06:24;100033.91;;;7.61;85.61
80103;BME280;69865;47.648;19.030;2023-11-21T01:06:56;100024.13;;;7.63;84.90
80103;BME280;69865;47.648;19.030;2023-11-21T01:07:30;100028.19;;;7.67;84.87
80103;BME280;69865;47.648;19.030;2023-11-21T01:08:02;100020.19;;;7.69;84.90
80103;BME280;69865;47.648;19.030;2023-11-21T01:08:35;100027.25;;;7.68;85.01
80103;BME280;69865;47.648;19.030;2023-11-21T01:09:07;100026.41;;;7.68;85.37
80103;BME280;69865;47.648;19.030;2023-11-21T01:09:39;100014.72;;;7.72;85.06
80103;BME280;69865;47.648;19.030;2023-11-21T01:10:11;100028.50;;;7.74;85.05
80103;BME280;69865;47.648;19.030;2023-11-21T01:10:43;100020.78;;;7.72;84.41
80103;BME280;69865;47.648;19.030;2023-11-21T01:11:18;100015.06;;;7.67;84.90
80103;BME280;69865;47.648;19.030;2023-11-21T01:11:50;100014.81;;;7.70;84.78
80103;BME280;69865;47.648;19.030;2023-11-21T01:12:22;100017.56;;;7.69;84.43
80103;BME280;69865;47.648;19.030;2023-11-21T01:12:54;100003.28;;;7.62;85.00
80103;BME280;69865;47.648;19.030;2023-11-21T01:13:27;100022.00;;;7.68;85.20
80103;BME280;69865;47.648;19.030;2023-11-21T01:13:59;100014.50;;;7.64;85.16
80103;BME280;69865;47.648;19.030;2023-11-21T01:14:31;100017.69;;;7.67;84.86
80103;BME280;69865;47.648;19.030;2023-11-21T01:15:04;100018.28;;;7.71;84.88
80103;BME280;69865;47.648;19.030;2023-11-21T01:15:37;100018.25;;;7.82;84.00
80103;BME280;69865;47.648;19.030;2023-11-21T01:16:09;100015.25;;;7.86;84.11
80103;BME280;69865;47.648;19.030;2023-11-21T01:16:41;100012.97;;;7.93;83.53
80103;BME280;69865;47.648;19.030;2023-11-21T01:17:13;100021.56;;;7.95;83.16
80103;BME280;69865;47.648;19.030;2023-11-21T01:17:46;100015.94;;;7.99;82.95
80103;BME280;69865;47.648;19.030;2023-11-21T01:18:19;100017.00;;;8.08;82.42
80103;BME280;69865;47.648;19.030;2023-11-21T01:18:51;100013.53;;;8.08;82.97
80103;BME280;69865;47.648;19.030;2023-11-21T01:19:24;100020.19;;;8.12;82.26
80103;BME280;69865;47.648;19.030;2023-11-21T01:19:56;100015.91;;;8.11;82.85
80103;BME280;69865;47.648;19.030;2023-11-21T01:20:28;100008.28;;;8.08;82.58
80103;BME280;69865;47.648;19.030;2023-11-21T01:21:01;100009.81;;;8.10;82.75
80103;BME280;69865;47.648;19.030;2023-11-21T01:21:33;100016.13;;;8.19;82.21
80103;BME280;69865;47.648;19.030;2023-11-21T01:22:05;100013.22;;;8.22;81.43
80103;BME280;69865;47.648;19.030;2023-11-21T01:22:39;100013.50;;;8.19;82.04
80103;BME280;69865;47.648;19.030;2023-11-21T01:23:11;100010.22;;;8.26;81.76
80103;BME280;69865;47.648;19.030;2023-11-21T01:23:43;100012.84;;;8.26;81.89
80103;BME280;69865;47.648;19.030;2023-11-21T01:24:15;100003.47;;;8.24;82.14
80103;BME280;69865;47.648;19.030;2023-11-21T01:24:47;100009.16;;;8.29;80.96
80103;BME280;69865;47.648;19.030;2023-11-21T01:25:19;100010.13;;;8.28;81.95
80103;BME280;69865;47.648;19.030;2023-11-21T01:25:52;100004.75;;;8.29;80.73
80103;BME280;69865;47.648;19.030;2023-11-21T01:26:24;100010.94;;;8.28;80.99
80103;BME280;69865;47.648;19.030;2023-11-21T01:26:56;100009.06;;;8.30;81.33
80103;BME280;69865;47.648;19.030;2023-11-21T01:27:28;100009.91;;;8.31;80.78
80103;BME280;69865;47.648;19.030;2023-11-21T01:28:04;100003.47;;;8.24;82.02
80103;BME280;69865;47.648;19.030;2023-11-21T01:28:37;100007.88;;;8.23;81.31
80103;BME280;69865;47.648;19.030;2023-11-21T01:29:09;100005.25;;;8.23;81.40
80103;BME280;69865;47.648;19.030;2023-11-21T01:29:42;100009.50;;;8.24;80.91
80103;BME280;69865;47.648;19.030;2023-11-21T01:30:17;100013.81;;;8.25;81.35
80103;BME280;69865;47.648;19.030;2023-11-21T01:30:49;100009.66;;;8.23;81.43
80103;BME280;69865;47.648;19.030;2023-11-21T01:31:21;100010.03;;;8.18;81.65
80103;BME280;69865;47.648;19.030;2023-11-21T01:31:57;100012.75;;;8.17;82.24
80103;BME280;69865;47.648;19.030;2023-11-21T01:32:29;100008.72;;;8.13;82.16
80103;BME280;69865;47.648;19.030;2023-11-21T01:33:02;99992.66;;;8.06;81.92
80103;BME280;69865;47.648;19.030;2023-11-21T01:33:34;100008.34;;;8.17;81.52
80103;BME280;69865;47.648;19.030;2023-11-21T01:34:07;100006.94;;;8.13;81.28
80103;BME280;69865;47.648;19.030;2023-11-21T01:34:39;100007.53;;;8.17;81.11
80103;BME280;69865;47.648;19.030;2023-11-21T01:35:12;100008.50;;;8.16;81.22
80103;BME280;69865;47.648;19.030;2023-11-21T01:35:44;99998.25;;;8.13;81.70
80103;BME280;69865;47.648;19.030;2023-11-21T01:36:16;100005.72;;;8.17;81.44
80103;BME280;69865;47.648;19.030;2023-11-21T01:36:48;100009.06;;;8.19;80.86
80103;BME280;69865;47.648;19.030;2023-11-21T01:37:21;100009.91;;;8.20;81.67
80103;BME280;69865;47.648;19.030;2023-11-21T01:37:55;100007.28;;;8.20;81.87
80103;BME280;69865;47.648;19.030;2023-11-21T01:38:27;99998.00;;;8.16;81.66
80103;BME280;69865;47.648;19.030;2023-11-21T01:39:00;100005.63;;;8.19;80.83
80103;BME280;69865;47.648;19.030;2023-11-21T01:39:32;100011.94;;;8.16;81.06
80103;BME280;69865;47.648;19.030;2023-11-21T01:40:06;100013.50;;;8.19;81.88
80103;BME280;69865;47.648;19.030;2023-11-21T01:40:39;100003.38;;;8.14;80.93
80103;BME280;69865;47.648;19.030;2023-11-21T01:41:15;99999.78;;;8.15;81.99
80103;BME280;69865;47.648;19.030;2023-11-21T01:41:47;100006.00;;;8.14;81.52
80103;BME280;69865;47.648;19.030;2023-11-21T01:42:19;100010.28;;;8.15;81.16
80103;BME280;69865;47.648;19.030;2023-11-21T01:42:53;99997.22;;;8.04;81.61
80103;BME280;69865;47.648;19.030;2023-11-21T01:43:25;100006.25;;;8.11;82.10
80103;BME280;69865;47.648;19.030;2023-11-21T01:43:57;100007.19;;;8.10;82.31
80103;BME280;69865;47.648;19.030;2023-11-21T01:44:29;100006.50;;;8.08;82.17
80103;BME280;69865;47.648;19.030;2023-11-21T01:45:05;100010.78;;;8.09;81.60
80103;BME280;69865;47.648;19.030;2023-11-21T01:45:37;100010.66;;;8.11;81.43
80103;BME280;69865;47.648;19.030;2023-11-21T01:46:10;100013.53;;;8.08;81.60
80103;BME280;69865;47.648;19.030;2023-11-21T01:46:42;100006.72;;;8.05;82.07
80103;BME280;69865;47.648;19.030;2023-11-21T01:47:15;100010.34;;;8.04;81.75
80103;BME280;69865;47.648;19.030;2023-11-21T01:47:48;100009.50;;;8.03;82.56
80103;BME280;69865;47.648;19.030;2023-11-21T01:48:20;100013.19;;;8.01;82.59
80103;BME280;69865;47.648;19.030;2023-11-21T01:48:53;100013.31;;;7.99;81.87
80103;BME280;69865;47.648;19.030;2023-11-21T01:49:27;100008.31;;;7.96;82.67
80103;BME280;69865;47.648;19.030;2023-11-21T01:49:59;100018.44;;;8.01;82.08
80103;BME280;69865;47.648;19.030;2023-11-21T01:50:31;100013.91;;;8.03;81.87
80103;BME280;69865;47.648;19.030;2023-11-21T01:51:04;100018.44;;;8.01;82.65
80103;BME280;69865;47.648;19.030;2023-11-21T01:51:36;100012.59;;;7.97;81.92
80103;BME280;69865;47.648;19.030;2023-11-21T01:52:09;100018.56;;;7.99;82.42
80103;BME280;69865;47.648;19.030;2023-11-21T01:52:44;100021.31;;;7.98;81.60
80103;BME280;69865;47.648;19.030;2023-11-21T01:53:18;100021.41;;;7.96;82.18
80103;BME280;69865;47.648;19.030;2023-11-21T01:53:50;100021.31;;;7.98;82.44
80103;BME280;69865;47.648;19.030;2023-11-21T01:54:22;100024.19;;;7.95;83.04
80103;BME280;69865;47.648;19.030;2023-11-21T01:54:54;100028.00;;;7.91;82.68
80103;BME280;69865;47.648;19.030;2023-11-21T01:55:27;100031.00;;;7.86;83.06
80103;BME280;69865;47.648;19.030;2023-11-21T01:56:00;100029.00;;;7.79;84.28
80103;BME280;69865;47.648;19.030;2023-11-21T01:56:32;100028.03;;;7.69;84.51
80103;BME280;69865;47.648;19.030;2023-11-21T01:57:08;100025.09;;;7.62;83.96
80103;BME280;69865;47.648;19.030;2023-11-21T01:57:41;100017.47;;;7.59;84.39
80103;BME280;69865;47.648;19.030;2023-11-21T01:58:13;100018.66;;;7.55;83.86
80103;BME280;69865;47.648;19.030;2023-11-21T01:58:45;100014.63;;;7.51;83.56
80103;BME280;69865;47.648;19.030;2023-11-21T01:59:20;100015.81;;;7.47;84.31
80103;BME280;69865;47.648;19.030;2023-11-21T01:59:54;100016.88;;;7.44;84.05
80103;BME280;69865;47.648;19.030;2023-11-21T02:00:26;100011.06;;;7.41;84.31
80103;BME280;69865;47.648;19.030;2023-11-21T02:00:58;100009.50;;;7.38;84.71
80103;BME280;69865;47.648;19.030;2023-11-21T02:01:30;100006.19;;;7.36;85.02
80103;BME280;69865;47.648;19.030;2023-11-21T02:02:03;100004.88;;;7.31;85.32
80103;BME280;69865;47.648;19.030;2023-11-21T02:02:35;100004.06;;;7.19;85.43
80103;BME280;69865;47.648;19.030;2023-11-21T02:03:07;100007.13;;;7.13;85.55
80103;BME280;69865;47.648;19.030;2023-11-21T02:03:39;100008.31;;;7.09;86.34
80103;BME280;69865;47.648;19.030;2023-11-21T02:04:14;100005.47;;;7.01;86.65
80103;BME280;69865;47.648;19.030;2023-11-21T02:04:46;100006.53;;;6.98;86.74
80103;BME280;69865;47.648;19.030;2023-11-21T02:05:21;100001.06;;;6.90;87.27
80103;BME280;69865;47.648;19.030;2023-11-21T02:05:53;100004.75;;;6.88;87.20
80103;BME280;69865;47.648;19.030;2023-11-21T02:06:25;100003.09;;;6.87;87.49
80103;BME280;69865;47.648;19.030;2023-11-21T02:06:57;100002.59;;;6.82;87.85
80103;BME280;69865;47.648;19.030;2023-11-21T02:07:30;100002.00;;;6.78;88.03
80103;BME280;69865;47.648;19.030;2023-11-21T02:08:02;99999.63;;;6.75;88.64
80103;BME280;69865;47.648;19.030;2023-11-21T02:08:35;99993.31;;;6.67;88.02
80103;BME280;69865;47.648;19.030;2023-11-21T02:09:07;100008.06;;;6.68;88.92
80103;BME280;69865;47.648;19.030;2023-11-21T02:09:39;100006.63;;;6.64;89.13
80103;BME280;69865;47.648;19.030;2023-11-21T02:10:13;100005.88;;;6.61;89.32
80103;BME280;69865;47.648;19.030;2023-11-21T02:10:47;100003.00;;;6.53;89.48
80103;BME280;69865;47.648;19.030;2023-11-21T02:11:19;100005.28;;;6.47;89.89
80103;BME280;69865;47.648;19.030;2023-11-21T02:11:51;100005.50;;;6.44;90.37
80103;BME280;69865;47.648;19.030;2023-11-21T02:12:25;100004.91;;;6.40;90.61
80103;BME280;69865;47.648;19.030;2023-11-21T02:12:57;99999.69;;;6.40;90.52
80103;BME280;69865;47.648;19.030;2023-11-21T02:13:29;100001.44;;;6.40;90.69
80103;BME280;69865;47.648;19.030;2023-11-21T02:14:02;100003.34;;;6.38;90.35
80103;BME280;69865;47.648;19.030;2023-11-21T02:14:38;100000.00;;;6.36;90.74
80103;BME280;69865;47.648;19.030;2023-11-21T02:15:12;100005.34;;;6.34;90.62
80103;BME280;69865;47.648;19.030;2023-11-21T02:15:48;100004.75;;;6.31;90.72
80103;BME280;69865;47.648;19.030;2023-11-21T02:16:21;100000.34;;;6.31;90.77
80103;BME280;69865;47.648;19.030;2023-11-21T02:16:54;100005.22;;;6.25;90.82
80103;BME280;69865;47.648;19.030;2023-11-21T02:17:30;100000.69;;;6.27;91.50
80103;BME280;69865;47.648;19.030;2023-11-21T02:18:03;99997.72;;;6.20;92.19
80103;BME280;69865;47.648;19.030;2023-11-21T02:18:36;100001.25;;;6.19;92.16
80103;BME280;69865;47.648;19.030;2023-11-21T02:19:11;99997.09;;;6.17;91.93
80103;BME280;69865;47.648;19.030;2023-11-21T02:19:49;99998.75;;;6.18;92.06
80103;BME280;69865;47.648;19.030;2023-11-21T02:20:23;99998.53;;;6.21;92.46
80103;BME280;69865;47.648;19.030;2023-11-21T02:20:55;99995.78;;;6.22;92.79
80103;BME280;69865;47.648;19.030;2023-11-21T02:21:29;99994.00;;;6.23;92.91
80103;BME280;69865;47.648;19.030;2023-11-21T02:22:02;99992.47;;;6.20;92.55
80103;BME280;69865;47.648;19.030;2023-11-21T02:22:37;99993.41;;;6.19;92.58
80103;BME280;69865;47.648;19.030;2023-11-21T02:23:13;100001.50;;;6.16;92.65
80103;BME280;69865;47.648;19.030;2023-11-21T02:23:45;99997.44;;;6.12;92.50
80103;BME280;69865;47.648;19.030;2023-11-21T02:24:22;99993.47;;;6.06;92.84
80103;BME280;69865;47.648;19.030;2023-11-21T02:24:54;99996.22;;;6.05;92.86
80103;BME280;69865;47.648;19.030;2023-11-21T02:25:28;99993.72;;;6.03;93.07
80103;BME280;69865;47.648;19.030;2023-11-21T02:26:00;99993.63;;;6.05;93.15
80103;BME280;69865;47.648;19.030;2023-11-21T02:26:32;99989.19;;;6.05;93.39
80103;BME280;69865;47.648;19.030;2023-11-21T02:27:06;99991.09;;;6.03;93.32
80103;BME280;69865;47.648;19.030;2023-11-21T02:27:38;99991.44;;;5.99;93.58
80103;BME280;69865;47.648;19.030;2023-11-21T02:28:10;99991.34;;;6.00;93.56
80103;BME280;69865;47.648;19.030;2023-11-21T02:28:43;99989.66;;;5.99;93.54
80103;BME280;69865;47.648;19.030;2023-11-21T02:29:15;99984.66;;;5.96;93.79
80103;BME280;69865;47.648;19.030;2023-11-21T02:29:49;99991.53;;;5.97;94.02
80103;BME280;69865;47.648;19.030;2023-11-21T02:30:25;99984.53;;;5.98;94.10
80103;BME280;69865;47.648;19.030;2023-11-21T02:31:01;99982.66;;;6.00;94.23
80103;BME280;69865;47.648;19.030;2023-11-21T02:31:33;99992.50;;;5.96;94.47
80103;BME280;69865;47.648;19.030;2023-11-21T02:32:06;99989.28;;;5.93;94.47
80103;BME280;69865;47.648;19.030;2023-11-21T02:32:38;99994.59;;;5.91;94.59
80103;BME280;69865;47.648;19.030;2023-11-21T02:33:20;99988.44;;;5.92;94.94
80103;BME280;69865;47.648;19.030;2023-11-21T02:33:52;99991.16;;;5.91;94.67
80103;BME280;69865;47.648;19.030;2023-11-21T02:34:24;99993.06;;;5.89;94.69
80103;BME280;69865;47.648;19.030;2023-11-21T02:34:56;99992.94;;;5.90;94.56
80103;BME280;69865;47.648;19.030;2023-11-21T02:35:28;99992.00;;;5.91;95.14
80103;BME280;69865;47.648;19.030;2023-11-21T02:36:01;99994.38;;;5.94;94.62
80103;BME280;69865;47.648;19.030;2023-11-21T02:36:34;99994.28;;;5.96;95.11
80103;BME280;69865;47.648;19.030;2023-11-21T02:37:06;99995.94;;;5.97;94.62
80103;BME280;69865;47.648;19.030;2023-11-21T02:37:38;100000.09;;;5.99;94.85
80103;BME280;69865;47.648;19.030;2023-11-21T02:38:10;99998.44;;;5.98;94.76
80103;BME280;69865;47.648;19.030;2023-11-21T02:38:43;99993.34;;;5.97;95.39
80103;BME280;69865;47.648;19.030;2023-11-21T02:39:16;99992.50;;;5.96;95.26
80103;BME280;69865;47.648;19.030;2023-11-21T02:39:48;99997.31;;;5.90;95.74
80103;BME280;69865;47.648;19.030;2023-11-21T02:40:20;99991.16;;;5.91;95.08
80103;BME280;69865;47.648;19.030;2023-11-21T02:40:53;99992.69;;;5.93;95.35
80103;BME280;69865;47.648;19.030;2023-11-21T02:41:25;99989.28;;;5.93;95.33
80103;BME280;69865;47.648;19.030;2023-11-21T02:41:57;99994.38;;;5.94;95.14
80103;BME280;69865;47.648;19.030;2023-11-21T02:42:29;99993.53;;;5.94;95.47
80103;BME280;69865;47.648;19.030;2023-11-21T02:43:01;99994.50;;;5.93;95.11
80103;BME280;69865;47.648;19.030;2023-11-21T02:43:34;99992.59;;;5.95;95.33
80103;BME280;69865;47.648;19.030;2023-11-21T02:44:06;99996.06;;;5.95;95.66
80103;BME280;69865;47.648;19.030;2023-11-21T02:44:38;99993.34;;;5.97;95.22
80103;BME280;69865;47.648;19.030;2023-11-21T02:45:10;99989.97;;;5.95;95.63
80103;BME280;69865;47.648;19.030;2023-11-21T02:45:46;99993.22;;;5.98;95.20
80103;BME280;69865;47.648;19.030;2023-11-21T02:46:18;99996.75;;;5.97;95.46
80103;BME280;69865;47.648;19.030;2023-11-21T02:46:50;99991.53;;;5.97;95.17
80103;BME280;69865;47.648;19.030;2023-11-21T02:47:22;99989.97;;;5.95;95.48
80103;BME280;69865;47.648;19.030;2023-11-21T02:47:54;99991.75;;;5.94;95.67
80103;BME280;69865;47.648;19.030;2023-11-21T02:48:26;99994.28;;;5.96;95.29
80103;BME280;69865;47.648;19.030;2023-11-21T02:48:59;99989.75;;;5.98;95.45
80103;BME280;69865;47.648;19.030;2023-11-21T02:49:31;99989.75;;;5.98;95.35
80103;BME280;69865;47.648;19.030;2023-11-21T02:50:04;99989.75;;;5.98;95.55
80103;BME280;69865;47.648;19.030;2023-11-21T02:50:36;99988.72;;;6.00;95.45
80103;BME280;69865;47.648;19.030;2023-11-21T02:51:08;99986.72;;;6.04;95.63
80103;BME280;69865;47.648;19.030;2023-11-21T02:51:40;99983.75;;;6.08;95.22